Time;durP1;ratioP1;P1;durP2;ratioP2;P2;SDS_P1;SDS_P2;PMS_P1;PMS_P2;Temp;Humidity;BMP_temperature;BMP_pressure;BME280_temperature;BME280_humidity;BME280_pressure;Samples;Min_cycle;Max_cycle;Signal;HPM_P1;HPM_P2
2023/11/03 00:01:16;;;;;;;10.40;7.50;;;11.40;99.90;;;;;;5111556;28;21007;-61
2023/11/03 00:03:43;;;;;;;10.30;7.20;;;11.40;99.90;;;;;;5107287;28;20488;-59
2023/11/03 00:06:10;;;;;;;9.50;8.20;;;11.50;99.90;;;;;;5104125;28;20525;-57
2023/11/03 00:08:37;;;;;;;10.87;7.53;;;11.50;99.90;;;;;;5114762;28;20871;-59
2023/11/03 00:11:06;;;;;;;8.17;7.37;;;11.50;99.90;;;;;;5117801;28;20914;-60
2023/11/03 00:13:35;;;;;;;15.07;8.90;;;11.50;99.90;;;;;;5096938;28;20528;-58
2023/11/03 00:16:03;;;;;;;11.67;7.50;;;11.50;99.90;;;;;;5107534;28;20453;-53
2023/11/03 00:18:30;;;;;;;11.43;7.40;;;11.50;99.90;;;;;;5103872;28;20568;-61
2023/11/03 00:20:57;;;;;;;9.23;7.50;;;11.50;99.90;;;;;;5097060;28;20528;-60
2023/11/03 00:23:24;;;;;;;8.90;6.97;;;11.50;99.90;;;;;;5110097;28;20473;-60
2023/11/03 00:25:51;;;;;;;11.30;8.90;;;11.50;99.90;;;;;;5118175;28;20430;-62
2023/11/03 00:28:22;;;;;;;12.60;8.43;;;11.50;99.90;;;;;;5097943;28;20536;-59
2023/11/03 00:30:49;;;;;;;9.50;7.73;;;11.60;99.90;;;;;;5100819;28;20590;-57
2023/11/03 00:33:17;;;;;;;9.87;7.50;;;11.50;99.90;;;;;;5112117;28;20536;-61
2023/11/03 00:35:44;;;;;;;9.60;6.63;;;11.50;99.90;;;;;;5107150;28;20456;-59
2023/11/03 00:38:13;;;;;;;10.90;7.83;;;11.50;99.90;;;;;;5096548;28;20460;-59
2023/11/03 00:40:40;;;;;;;10.60;7.20;;;11.50;99.90;;;;;;5096660;28;20445;-58
2023/11/03 00:43:07;;;;;;;11.20;7.97;;;11.50;99.90;;;;;;5096136;28;20496;-61
2023/11/03 00:45:35;;;;;;;10.43;6.93;;;11.50;99.90;;;;;;5096333;28;20441;-58
2023/11/03 00:48:02;;;;;;;8.20;7.23;;;11.40;99.90;;;;;;5108504;28;20452;-55
2023/11/03 00:50:29;;;;;;;12.67;8.80;;;11.40;99.90;;;;;;5120254;28;20418;-56
2023/11/03 00:52:56;;;;;;;13.23;8.83;;;11.40;99.90;;;;;;5099920;28;20445;-59
2023/11/03 00:55:23;;;;;;;10.27;8.10;;;11.50;99.90;;;;;;5095527;28;20484;-59
2023/11/03 00:57:49;;;;;;;9.33;7.30;;;11.40;99.90;;;;;;5096228;28;20891;-59
2023/11/03 01:00:17;;;;;;;10.90;7.20;;;11.40;99.90;;;;;;5096010;28;20442;-60
2023/11/03 01:02:45;;;;;;;8.83;7.53;;;11.40;99.90;;;;;;5118809;28;20461;-57
2023/11/03 01:05:14;;;;;;;11.00;7.70;;;11.40;99.90;;;;;;5117538;28;20475;-58
2023/11/03 01:07:41;;;;;;;10.80;7.87;;;11.40;99.90;;;;;;5114771;28;20865;-60
2023/11/03 01:10:09;;;;;;;11.83;6.80;;;11.40;99.90;;;;;;5114963;28;20441;-59
2023/11/03 01:12:36;;;;;;;12.17;8.30;;;11.30;99.90;;;;;;5111375;28;20812;-59
2023/11/03 01:15:05;;;;;;;10.70;7.40;;;11.30;99.90;;;;;;5096148;28;20533;-60
2023/11/03 01:17:34;;;;;;;10.03;6.73;;;11.40;99.90;;;;;;5095563;28;20542;-60
2023/11/03 01:20:12;;;;;;;9.30;6.87;;;11.30;99.90;;;;;;5106151;28;20464;-59
2023/11/03 01:22:40;;;;;;;13.40;8.33;;;11.30;99.90;;;;;;5115525;28;20556;-61
2023/11/03 01:25:07;;;;;;;11.00;8.60;;;11.30;99.90;;;;;;5107317;28;20453;-60
2023/11/03 01:27:34;;;;;;;10.77;7.60;;;11.30;99.90;;;;;;5107081;28;20406;-58
2023/11/03 01:30:02;;;;;;;11.00;7.03;;;11.30;99.90;;;;;;5107560;28;20461;-60
2023/11/03 01:32:30;;;;;;;8.00;6.60;;;11.30;99.90;;;;;;5112796;28;20469;-60
2023/11/03 01:34:57;;;;;;;14.80;8.60;;;11.30;99.90;;;;;;5113251;28;20460;-55
2023/11/03 01:37:26;;;;;;;9.50;7.10;;;11.30;99.90;;;;;;5111269;28;20462;-57
2023/11/03 01:39:53;;;;;;;17.00;7.87;;;11.30;99.90;;;;;;5111057;28;20465;-59
2023/11/03 01:42:20;;;;;;;13.20;8.17;;;11.30;99.90;;;;;;5109435;28;20476;-55
2023/11/03 01:44:47;;;;;;;8.80;7.03;;;11.30;99.90;;;;;;5103592;28;20473;-60
2023/11/03 01:47:14;;;;;;;10.33;7.63;;;11.30;99.90;;;;;;5101918;28;20532;-59
2023/11/03 01:49:41;;;;;;;10.87;8.13;;;11.30;99.90;;;;;;5116074;28;20448;-61
2023/11/03 01:52:09;;;;;;;10.53;8.10;;;11.30;99.90;;;;;;5097715;28;20475;-59
2023/11/03 01:54:39;;;;;;;9.27;6.63;;;11.30;99.90;;;;;;5113003;28;20438;-57
2023/11/03 01:57:06;;;;;;;10.30;7.40;;;11.30;99.90;;;;;;5084489;28;20844;-59
2023/11/03 01:59:33;;;;;;;9.40;6.50;;;11.30;99.90;;;;;;5089556;28;20423;-61
2023/11/03 02:02:04;;;;;;;9.50;6.97;;;11.30;99.90;;;;;;5088747;28;20449;-52
2023/11/03 02:04:31;;;;;;;8.80;6.50;;;11.30;99.90;;;;;;5084991;28;20426;-61
2023/11/03 02:06:58;;;;;;;9.10;7.20;;;11.30;99.90;;;;;;5081361;28;20490;-60
2023/11/03 02:09:26;;;;;;;8.67;6.90;;;11.20;99.90;;;;;;5089615;28;20474;-58
2023/11/03 02:11:54;;;;;;;8.47;6.60;;;11.20;99.90;;;;;;5094966;28;20453;-55
2023/11/03 02:14:22;;;;;;;7.13;6.03;;;11.20;99.90;;;;;;5089162;28;20435;-61
2023/11/03 02:16:49;;;;;;;8.33;6.57;;;11.20;99.90;;;;;;5091130;28;20418;-60
2023/11/03 02:19:16;;;;;;;13.67;6.97;;;11.20;99.90;;;;;;5092920;28;20477;-58
2023/11/03 02:21:44;;;;;;;8.90;6.90;;;11.20;99.90;;;;;;5092274;28;20481;-62
2023/11/03 02:24:12;;;;;;;8.33;7.10;;;11.20;99.90;;;;;;5080223;28;20526;-59
2023/11/03 02:26:39;;;;;;;12.00;6.90;;;11.10;99.90;;;;;;5095474;28;20490;-60
2023/11/03 02:29:06;;;;;;;7.47;6.60;;;11.10;99.90;;;;;;5075486;28;20427;-60
2023/11/03 02:31:33;;;;;;;8.43;6.07;;;11.10;99.90;;;;;;5073608;28;20452;-60
2023/11/03 02:34:00;;;;;;;5.67;5.07;;;11.10;99.90;;;;;;5074700;28;21013;-59
2023/11/03 02:36:27;;;;;;;9.47;6.23;;;11.10;99.90;;;;;;5098407;28;20418;-58
2023/11/03 02:38:55;;;;;;;9.03;6.30;;;11.10;99.90;;;;;;5095516;28;20442;-58
2023/11/03 02:41:26;;;;;;;6.77;5.90;;;11.10;99.90;;;;;;5081444;28;20430;-56
2023/11/03 02:43:53;;;;;;;6.20;5.20;;;11.10;99.90;;;;;;5096029;28;20486;-58
2023/11/03 02:46:20;;;;;;;9.07;6.20;;;11.20;99.90;;;;;;5076031;28;20454;-59
2023/11/03 02:48:46;;;;;;;7.57;5.83;;;11.20;99.90;;;;;;5087749;28;20552;-59
2023/11/03 02:51:13;;;;;;;8.50;5.47;;;11.20;99.90;;;;;;5094222;28;20462;-53
2023/11/03 02:53:40;;;;;;;8.10;5.57;;;11.20;99.90;;;;;;5097782;28;20446;-55
2023/11/03 02:56:07;;;;;;;12.03;7.17;;;11.10;99.90;;;;;;5090011;28;20537;-60
2023/11/03 02:58:38;;;;;;;7.17;5.17;;;11.10;99.90;;;;;;5096448;28;20442;-58
2023/11/03 03:01:08;;;;;;;9.03;5.70;;;11.10;99.90;;;;;;5086036;28;20887;-59
2023/11/03 03:03:36;;;;;;;7.37;5.83;;;11.00;99.90;;;;;;5079037;28;20465;-56
2023/11/03 03:06:04;;;;;;;8.40;5.50;;;11.00;99.90;;;;;;5093783;28;20435;-58
2023/11/03 03:08:31;;;;;;;7.63;5.97;;;11.00;99.90;;;;;;5092740;28;20450;-58
2023/11/03 03:10:58;;;;;;;9.37;5.63;;;10.90;99.90;;;;;;5095891;28;20565;-60
2023/11/03 03:13:25;;;;;;;8.03;6.53;;;11.00;99.90;;;;;;5093895;28;20430;-60
2023/11/03 03:15:53;;;;;;;6.60;5.27;;;11.00;99.90;;;;;;5092190;28;20476;-51
2023/11/03 03:18:21;;;;;;;9.73;5.50;;;10.90;99.90;;;;;;5101549;28;20456;-55
2023/11/03 03:20:48;;;;;;;7.50;5.27;;;11.00;99.90;;;;;;5118151;28;20463;-59
2023/11/03 03:23:14;;;;;;;9.20;5.37;;;10.90;99.90;;;;;;5102696;28;20477;-60
2023/11/03 03:25:41;;;;;;;7.10;5.23;;;10.90;99.90;;;;;;5094049;28;20448;-58
2023/11/03 03:28:08;;;;;;;10.83;6.30;;;10.90;99.90;;;;;;5077528;28;20466;-60
2023/11/03 03:30:37;;;;;;;7.70;5.70;;;10.90;99.90;;;;;;5078398;28;20494;-57
2023/11/03 03:33:06;;;;;;;6.83;5.50;;;10.90;99.90;;;;;;5097731;28;20413;-55
2023/11/03 03:35:33;;;;;;;7.00;5.87;;;10.80;99.90;;;;;;5096110;28;20439;-60
2023/11/03 03:37:59;;;;;;;11.93;5.47;;;10.80;99.90;;;;;;5095148;28;20437;-58
2023/11/03 03:40:26;;;;;;;7.97;6.00;;;10.80;99.90;;;;;;5092670;28;20454;-60
2023/11/03 03:42:53;;;;;;;9.67;5.20;;;10.80;99.90;;;;;;5074345;28;20565;-58
2023/11/03 03:45:20;;;;;;;8.33;5.10;;;10.80;99.90;;;;;;5078042;28;20438;-59
2023/11/03 03:47:47;;;;;;;5.10;4.13;;;10.80;99.90;;;;;;5095518;28;20441;-57
2023/11/03 03:50:15;;;;;;;7.03;4.90;;;10.80;99.90;;;;;;5100553;28;20438;-59
2023/11/03 03:52:45;;;;;;;6.70;5.33;;;10.80;99.90;;;;;;5098375;28;20461;-57
2023/11/03 03:55:12;;;;;;;6.00;4.60;;;10.80;99.90;;;;;;5098302;28;20453;-60
2023/11/03 03:57:39;;;;;;;7.10;4.83;;;10.80;99.90;;;;;;5097939;28;20488;-59
2023/11/03 04:00:07;;;;;;;6.37;4.80;;;10.80;99.90;;;;;;5097115;28;20493;-62
2023/11/03 04:02:34;;;;;;;6.17;4.70;;;10.70;99.90;;;;;;5106089;28;20485;-54
2023/11/03 04:05:02;;;;;;;5.23;4.67;;;10.70;99.90;;;;;;5121072;28;20440;-55
2023/11/03 04:07:30;;;;;;;5.53;4.70;;;10.70;99.90;;;;;;5118616;28;20457;-58
2023/11/03 04:09:57;;;;;;;5.47;4.63;;;10.70;99.90;;;;;;5117595;28;20457;-61
2023/11/03 04:12:24;;;;;;;6.30;4.63;;;10.70;99.90;;;;;;5104743;28;20520;-60
2023/11/03 04:14:50;;;;;;;5.10;4.00;;;10.70;99.90;;;;;;5096666;28;20536;-59
2023/11/03 04:17:17;;;;;;;5.23;3.90;;;10.70;99.90;;;;;;5097146;28;20604;-61
2023/11/03 04:19:44;;;;;;;6.93;5.20;;;10.60;99.90;;;;;;5096817;28;20484;-56
2023/11/03 04:22:11;;;;;;;8.73;5.00;;;10.60;99.90;;;;;;5097053;28;20751;-60
2023/11/03 04:24:39;;;;;;;7.10;5.10;;;10.60;99.90;;;;;;5096410;28;20989;-59
2023/11/03 04:27:06;;;;;;;5.37;4.40;;;10.60;99.90;;;;;;5088831;28;20950;-59
2023/11/03 04:29:33;;;;;;;5.33;3.70;;;10.60;99.90;;;;;;5099273;28;20452;-59
2023/11/03 04:32:00;;;;;;;4.23;3.80;;;10.60;99.90;;;;;;5081182;28;20441;-59
2023/11/03 04:34:27;;;;;;;8.20;4.37;;;10.60;99.90;;;;;;5095339;28;20442;-63
2023/11/03 04:36:54;;;;;;;8.23;4.73;;;10.50;99.90;;;;;;5076209;28;20553;-61
2023/11/03 04:39:21;;;;;;;6.87;3.90;;;10.50;99.90;;;;;;5076606;28;20545;-62
2023/11/03 04:41:49;;;;;;;5.40;3.90;;;10.50;99.90;;;;;;5078281;28;20473;-60
2023/11/03 04:44:16;;;;;;;5.27;4.10;;;10.50;99.90;;;;;;5099439;28;20466;-54
2023/11/03 04:46:43;;;;;;;3.80;3.07;;;10.50;99.90;;;;;;5098729;28;20431;-59
2023/11/03 04:49:10;;;;;;;7.20;3.83;;;10.50;99.90;;;;;;5076462;28;20477;-60
2023/11/03 04:51:36;;;;;;;4.50;3.40;;;10.40;99.90;;;;;;5075868;28;20447;-60
2023/11/03 04:54:04;;;;;;;9.17;4.27;;;10.40;99.90;;;;;;5087792;28;20465;-57
2023/11/03 04:56:30;;;;;;;3.50;3.00;;;10.40;99.90;;;;;;5094214;28;20459;-58
2023/11/03 04:58:59;;;;;;;3.77;3.13;;;10.40;99.90;;;;;;5076584;28;20466;-60
2023/11/03 05:01:25;;;;;;;4.70;3.70;;;10.40;99.90;;;;;;5077057;28;20492;-60
2023/11/03 05:03:52;;;;;;;5.50;3.23;;;10.40;99.90;;;;;;5085551;28;20485;-59
2023/11/03 05:06:19;;;;;;;5.37;3.13;;;10.40;99.90;;;;;;5096685;28;20525;-60
2023/11/03 05:08:46;;;;;;;4.57;3.20;;;10.40;99.90;;;;;;5081481;28;20529;-57
2023/11/03 05:11:14;;;;;;;3.50;2.63;;;10.40;99.90;;;;;;5075880;28;20442;-60
2023/11/03 05:13:41;;;;;;;4.93;2.73;;;10.40;99.90;;;;;;5075522;28;20435;-58
2023/11/03 05:16:09;;;;;;;3.40;3.03;;;10.40;99.90;;;;;;5075762;28;20438;-58
2023/11/03 05:18:38;;;;;;;5.30;3.20;;;10.30;99.90;;;;;;5075353;28;20880;-59
2023/11/03 05:21:05;;;;;;;5.60;3.40;;;10.40;99.90;;;;;;5080963;28;20461;-56
2023/11/03 05:23:32;;;;;;;4.87;3.17;;;10.40;99.90;;;;;;5098721;28;20489;-60
2023/11/03 05:25:59;;;;;;;4.07;2.90;;;10.40;99.90;;;;;;5090814;28;20462;-59
2023/11/03 05:28:26;;;;;;;3.90;2.67;;;10.40;99.90;;;;;;5091006;28;20457;-58
2023/11/03 05:30:54;;;;;;;3.70;2.80;;;10.40;99.90;;;;;;5090691;28;20493;-60
2023/11/03 05:33:22;;;;;;;7.00;3.07;;;10.40;99.90;;;;;;5086741;28;20752;-58
2023/11/03 05:35:49;;;;;;;4.37;2.90;;;10.40;99.90;;;;;;5075033;28;20953;-58
2023/11/03 05:38:16;;;;;;;9.60;3.00;;;10.40;99.90;;;;;;5078225;28;20977;-59
2023/11/03 05:40:44;;;;;;;4.60;3.27;;;10.50;99.90;;;;;;5075184;28;20580;-59
2023/11/03 05:43:10;;;;;;;3.63;2.67;;;10.50;99.90;;;;;;5095656;28;20422;-57
2023/11/03 05:45:37;;;;;;;4.10;2.50;;;10.50;99.90;;;;;;5095279;28;20490;-57
2023/11/03 05:48:04;;;;;;;7.70;3.13;;;10.50;99.90;;;;;;5075065;28;20525;-59
2023/11/03 05:50:32;;;;;;;12.33;3.27;;;10.50;99.90;;;;;;5083314;28;20414;-56
2023/11/03 05:52:59;;;;;;;6.27;3.00;;;10.40;99.90;;;;;;5099288;28;20418;-55
2023/11/03 05:55:27;;;;;;;3.97;3.40;;;10.40;99.90;;;;;;5077014;28;20442;-59
2023/11/03 05:57:54;;;;;;;4.33;3.10;;;10.40;99.90;;;;;;5075238;28;20481;-57
2023/11/03 06:00:21;;;;;;;3.47;2.90;;;10.30;99.90;;;;;;5074844;28;20541;-61
2023/11/03 06:02:50;;;;;;;4.60;2.90;;;10.30;99.90;;;;;;5082101;28;20451;-54
2023/11/03 06:05:17;;;;;;;7.20;3.63;;;10.30;99.90;;;;;;5090601;28;20477;-60
2023/11/03 06:07:45;;;;;;;5.23;3.03;;;10.30;99.90;;;;;;5074590;28;20947;-60
2023/11/03 06:10:13;;;;;;;5.30;2.70;;;10.30;99.90;;;;;;5075003;28;20505;-58
2023/11/03 06:12:40;;;;;;;6.33;3.03;;;10.20;99.90;;;;;;5096055;28;20454;-53
2023/11/03 06:15:08;;;;;;;3.67;2.43;;;10.20;99.90;;;;;;5095646;28;20461;-59
2023/11/03 06:17:35;;;;;;;5.97;2.07;;;10.20;99.90;;;;;;5090625;28;20442;-59
2023/11/03 06:20:03;;;;;;;6.17;2.77;;;10.10;99.90;;;;;;5108322;28;20568;-59
2023/11/03 06:22:30;;;;;;;3.50;2.47;;;10.10;99.90;;;;;;5097350;28;20437;-59
2023/11/03 06:24:59;;;;;;;6.20;2.17;;;10.10;99.90;;;;;;5094602;28;20485;-58
2023/11/03 06:27:26;;;;;;;3.93;2.13;;;10.10;99.90;;;;;;5094936;28;20429;-56
2023/11/03 06:29:53;;;;;;;7.20;2.53;;;10.10;99.90;;;;;;5116313;28;20422;-57
2023/11/03 06:32:19;;;;;;;5.90;2.43;;;10.10;99.90;;;;;;5099669;28;20842;-58
2023/11/03 06:34:46;;;;;;;3.63;1.33;;;10.10;99.90;;;;;;5077132;28;20958;-60
2023/11/03 06:37:13;;;;;;;2.47;2.20;;;10.10;99.90;;;;;;5074226;28;20553;-61
2023/11/03 06:39:40;;;;;;;3.57;1.57;;;10.10;99.90;;;;;;5074582;28;20450;-61
2023/11/03 06:42:09;;;;;;;4.17;3.20;;;10.10;99.90;;;;;;5074236;28;20469;-58
2023/11/03 06:44:36;;;;;;;3.20;1.60;;;10.10;99.90;;;;;;5074217;28;20474;-59
2023/11/03 06:47:06;;;;;;;3.10;2.10;;;10.10;99.90;;;;;;5095256;28;20453;-59
2023/11/03 06:49:33;;;;;;;4.37;2.70;;;10.10;99.90;;;;;;5091128;28;20419;-61
2023/11/03 06:52:00;;;;;;;4.43;2.03;;;10.10;99.90;;;;;;5090547;28;20485;-58
2023/11/03 06:54:27;;;;;;;2.57;2.30;;;10.10;99.90;;;;;;5077190;28;20530;-55
2023/11/03 06:56:54;;;;;;;9.67;5.00;;;10.10;99.90;;;;;;5087951;28;20447;-58
2023/11/03 06:59:22;;;;;;;5.47;3.73;;;10.10;99.90;;;;;;5095144;28;20466;-59
2023/11/03 07:01:49;;;;;;;7.17;1.90;;;10.20;99.90;;;;;;5108724;28;20460;-56
2023/11/03 07:04:16;;;;;;;4.30;2.03;;;10.20;99.90;;;;;;5109257;28;20794;-59
2023/11/03 07:06:43;;;;;;;2.67;1.53;;;10.20;99.90;;;;;;5112209;28;20461;-57
2023/11/03 07:09:11;;;;;;;6.47;2.00;;;10.20;99.90;;;;;;5107389;28;20484;-59
2023/11/03 07:11:38;;;;;;;4.57;1.53;;;10.30;99.90;;;;;;5111770;28;20483;-59
2023/11/03 07:14:05;;;;;;;3.93;1.53;;;10.30;99.90;;;;;;5113782;28;20472;-59
2023/11/03 07:16:33;;;;;;;7.40;2.00;;;10.30;99.90;;;;;;5098266;28;20464;-58
2023/11/03 07:19:01;;;;;;;3.57;1.63;;;10.40;99.90;;;;;;5116181;28;20480;-60
2023/11/03 07:21:27;;;;;;;4.87;2.17;;;10.40;99.90;;;;;;5119709;28;20414;-60
2023/11/03 07:23:54;;;;;;;5.47;2.20;;;10.50;99.90;;;;;;5117277;28;20425;-55
2023/11/03 07:26:22;;;;;;;9.23;2.80;;;10.50;99.90;;;;;;5113235;28;20453;-58
2023/11/03 07:28:49;;;;;;;7.73;2.30;;;10.60;99.90;;;;;;5113878;28;20449;-59
2023/11/03 07:31:16;;;;;;;5.20;2.20;;;10.60;99.90;;;;;;5105536;28;20921;-60
2023/11/03 07:33:44;;;;;;;7.77;3.27;;;10.60;99.90;;;;;;5111311;28;20449;-57
2023/11/03 07:36:12;;;;;;;5.80;3.40;;;10.70;99.90;;;;;;5108557;28;20808;-57
2023/11/03 07:38:39;;;;;;;5.10;2.10;;;10.80;99.90;;;;;;5114975;28;20425;-59
2023/11/03 07:41:08;;;;;;;3.47;1.60;;;10.80;99.90;;;;;;5108606;28;20487;-62
2023/11/03 07:43:35;;;;;;;1.80;1.50;;;10.80;99.90;;;;;;5113117;28;20450;-59
2023/11/03 07:46:02;;;;;;;3.10;2.13;;;10.80;99.90;;;;;;5114071;28;20517;-58
2023/11/03 07:48:28;;;;;;;8.87;2.30;;;10.90;99.90;;;;;;5112962;28;20425;-56
2023/11/03 07:51:01;;;;;;;9.07;2.40;;;10.90;99.90;;;;;;5114518;28;20488;-53
2023/11/03 07:53:30;;;;;;;6.37;2.03;;;11.00;99.90;;;;;;5100975;28;20532;-58
2023/11/03 07:55:58;;;;;;;5.57;1.73;;;11.10;99.90;;;;;;5117826;28;20811;-52
2023/11/03 07:58:26;;;;;;;4.30;2.00;;;11.20;99.90;;;;;;5115546;28;20465;-51
2023/11/03 08:00:53;;;;;;;6.53;2.30;;;11.20;99.90;;;;;;5102925;28;20552;-53
2023/11/03 08:03:19;;;;;;;3.37;1.90;;;11.20;99.90;;;;;;5110469;28;20556;-57
2023/11/03 08:05:46;;;;;;;4.57;2.50;;;11.20;99.90;;;;;;5112997;28;20461;-54
2023/11/03 08:08:15;;;;;;;5.07;1.63;;;11.30;99.90;;;;;;5111755;28;20532;-58
2023/11/03 08:10:42;;;;;;;6.57;2.57;;;11.20;99.90;;;;;;5107122;28;20509;-57
2023/11/03 08:13:08;;;;;;;4.00;2.67;;;11.30;99.90;;;;;;5104045;28;20477;-55
2023/11/03 08:15:38;;;;;;;3.40;2.03;;;11.40;99.90;;;;;;5109922;28;20505;-50
2023/11/03 08:18:05;;;;;;;8.40;1.70;;;11.40;99.90;;;;;;5111892;28;20495;-49
2023/11/03 08:20:33;;;;;;;10.03;2.40;;;11.40;99.90;;;;;;5112949;28;20457;-50
2023/11/03 08:23:00;;;;;;;5.07;1.80;;;11.40;99.90;;;;;;5107841;28;20464;-54
2023/11/03 08:25:29;;;;;;;4.90;2.07;;;11.50;99.90;;;;;;5115955;28;20480;-51
2023/11/03 08:27:57;;;;;;;9.10;2.63;;;11.40;99.90;;;;;;5117136;28;20450;-52
2023/11/03 08:30:24;;;;;;;2.43;2.07;;;11.40;99.90;;;;;;5103279;28;20434;-54
2023/11/03 08:32:52;;;;;;;9.23;2.30;;;11.40;99.90;;;;;;5111413;28;20461;-55
2023/11/03 08:35:22;;;;;;;6.60;3.00;;;11.40;99.90;;;;;;5118845;28;20468;-45
2023/11/03 08:37:52;;;;;;;7.83;2.00;;;11.40;99.90;;;;;;5106434;28;20497;-56
2023/11/03 08:40:20;;;;;;;5.50;2.00;;;11.40;99.90;;;;;;5109592;28;20449;-56
2023/11/03 08:42:49;;;;;;;3.83;2.57;;;11.50;99.90;;;;;;5117655;28;20457;-50
2023/11/03 08:45:17;;;;;;;18.50;9.50;;;11.50;99.90;;;;;;5107113;28;20495;-52
2023/11/03 08:47:44;;;;;;;6.40;4.23;;;11.50;99.90;;;;;;5119877;28;20491;-55
2023/11/03 08:50:12;;;;;;;10.10;5.90;;;11.60;99.90;;;;;;5113530;28;21087;-57
2023/11/03 08:52:40;;;;;;;1.97;1.80;;;11.60;99.90;;;;;;5111491;28;20548;-57
2023/11/03 08:55:08;;;;;;;3.63;2.20;;;11.70;99.90;;;;;;5116902;28;20432;-52
2023/11/03 08:57:35;;;;;;;3.23;1.90;;;11.80;99.90;;;;;;5107111;28;20894;-55
2023/11/03 09:00:08;;;;;;;3.43;1.67;;;11.90;99.90;;;;;;5119956;28;20446;-55
2023/11/03 09:02:36;;;;;;;1.80;1.67;;;12.00;99.90;;;;;;5112789;28;20442;-57
2023/11/03 09:05:04;;;;;;;7.87;2.00;;;12.00;99.90;;;;;;5102033;28;20534;-52
2023/11/03 09:07:31;;;;;;;4.10;2.20;;;12.10;99.90;;;;;;5097278;28;20441;-53
2023/11/03 09:09:59;;;;;;;13.50;2.10;;;12.10;99.90;;;;;;5117378;28;20492;-49
2023/11/03 09:12:25;;;;;;;8.90;2.47;;;12.10;99.90;;;;;;5097524;28;20437;-50
2023/11/03 09:14:53;;;;;;;4.10;2.30;;;12.20;99.90;;;;;;5116272;28;20465;-57
2023/11/03 09:17:21;;;;;;;6.00;2.10;;;12.20;99.90;;;;;;5108108;28;20452;-55
2023/11/03 09:19:48;;;;;;;4.10;1.50;;;12.20;99.90;;;;;;5102589;28;20569;-56
2023/11/03 09:22:15;;;;;;;7.07;1.97;;;12.30;99.90;;;;;;5105813;28;20491;-52
2023/11/03 09:24:44;;;;;;;4.43;1.40;;;12.40;99.90;;;;;;5102946;28;20496;-54
2023/11/03 09:27:12;;;;;;;2.80;1.93;;;12.50;99.90;;;;;;5106673;28;20453;-54
2023/11/03 09:29:41;;;;;;;5.83;2.90;;;12.50;99.90;;;;;;5111718;28;20445;-56
2023/11/03 09:32:09;;;;;;;5.67;1.87;;;12.60;99.90;;;;;;5108138;28;20890;-53
2023/11/03 09:34:37;;;;;;;4.70;2.40;;;12.60;99.90;;;;;;5118354;28;20433;-56
2023/11/03 09:37:05;;;;;;;7.33;2.17;;;12.70;99.90;;;;;;5106550;28;20472;-53
2023/11/03 09:39:33;;;;;;;2.90;1.47;;;12.80;99.90;;;;;;5111915;28;20920;-55
2023/11/03 09:42:03;;;;;;;8.60;1.97;;;12.90;99.90;;;;;;5115375;28;20453;-52
2023/11/03 09:44:31;;;;;;;4.50;1.83;;;12.90;99.90;;;;;;5115284;28;20429;-51
2023/11/03 09:47:00;;;;;;;1.87;1.53;;;12.90;99.90;;;;;;5098838;28;20529;-54
2023/11/03 09:49:27;;;;;;;3.40;2.10;;;13.00;99.90;;;;;;5104642;28;20438;-53
2023/11/03 09:52:03;;;;;;;3.07;1.73;;;13.00;99.90;;;;;;5106870;28;20462;-55
2023/11/03 09:54:31;;;;;;;2.33;1.30;;;13.10;99.90;;;;;;5113938;28;20429;-52
2023/11/03 09:57:00;;;;;;;7.03;2.10;;;13.10;99.90;;;;;;5104701;28;20560;-57
2023/11/03 09:59:28;;;;;;;5.10;1.43;;;13.10;99.90;;;;;;5096335;28;20495;-54
2023/11/03 10:01:55;;;;;;;3.97;2.07;;;13.00;99.90;;;;;;5108430;28;20461;-55
2023/11/03 10:04:22;;;;;;;2.57;1.70;;;13.00;99.90;;;;;;5093502;28;20544;-54
2023/11/03 10:06:50;;;;;;;3.23;2.10;;;12.90;99.90;;;;;;5090657;28;20587;-53
2023/11/03 10:09:18;;;;;;;5.83;1.60;;;12.80;99.90;;;;;;5093218;28;20457;-56
2023/11/03 10:11:45;;;;;;;10.73;2.80;;;12.70;99.90;;;;;;5098156;28;21057;-55
2023/11/03 10:14:12;;;;;;;7.00;1.93;;;12.60;99.90;;;;;;5125787;27;20437;-44
2023/11/03 10:16:39;;;;;;;3.50;1.67;;;12.50;99.90;;;;;;5117532;28;20464;-56
2023/11/03 10:19:06;;;;;;;7.60;2.00;;;12.50;99.90;;;;;;5093394;28;20466;-51
2023/11/03 10:21:34;;;;;;;3.10;1.30;;;12.40;99.90;;;;;;5094859;28;20471;-55
2023/11/03 10:24:00;;;;;;;3.60;1.47;;;12.40;99.90;;;;;;5094987;28;20457;-51
2023/11/03 10:26:29;;;;;;;2.77;1.20;;;12.40;99.90;;;;;;5095562;28;20538;-55
2023/11/03 10:28:56;;;;;;;3.83;1.40;;;12.30;99.90;;;;;;5094525;28;20956;-47
2023/11/03 10:31:26;;;;;;;1.50;1.20;;;12.30;99.90;;;;;;5105126;28;20446;-48
2023/11/03 10:33:57;;;;;;;3.93;1.10;;;12.40;99.90;;;;;;5093256;28;20487;-53
2023/11/03 10:36:26;;;;;;;4.80;1.20;;;12.30;99.90;;;;;;5094319;28;20496;-55
2023/11/03 10:38:54;;;;;;;6.30;1.40;;;12.30;99.90;;;;;;5117293;28;20441;-51
2023/11/03 10:41:21;;;;;;;9.23;1.67;;;12.30;99.90;;;;;;5112282;28;20790;-51
2023/11/03 10:43:56;;;;;;;3.43;1.60;;;12.30;99.90;;;;;;5094443;28;20516;-52
2023/11/03 10:46:33;;;;;;;7.13;1.47;;;12.30;99.90;;;;;;5080688;28;20489;-52
2023/11/03 10:49:10;;;;;;;10.93;2.00;;;12.30;99.90;;;;;;5113765;28;20467;-51
2023/11/03 10:51:41;;;;;;;3.17;1.53;;;12.40;99.90;;;;;;5101378;28;20434;-48
2023/11/03 10:54:17;;;;;;;7.53;1.40;;;12.30;99.90;;;;;;5113681;28;20481;-50
2023/11/03 10:56:46;;;;;;;4.40;1.00;;;12.30;99.90;;;;;;5099490;28;21253;-54
2023/11/03 10:59:15;;;;;;;5.03;1.67;;;12.30;99.90;;;;;;5114660;28;20937;-53
2023/11/03 11:01:46;;;;;;;3.67;1.30;;;12.30;99.90;;;;;;5110451;28;20488;-49
2023/11/03 11:04:18;;;;;;;1.93;1.00;;;12.30;99.90;;;;;;5115338;28;20494;-51
2023/11/03 11:06:50;;;;;;;2.53;1.20;;;12.30;99.90;;;;;;5123854;22;20484;-66
2023/11/03 11:09:25;;;;;;;8.90;1.40;;;12.30;99.90;;;;;;5125469;27;20456;-68
2023/11/03 11:11:53;;;;;;;4.03;2.50;;;12.30;99.90;;;;;;5138614;27;20439;-67
2023/11/03 11:14:27;;;;;;;2.87;1.63;;;12.30;99.90;;;;;;5143853;27;20455;-67
2023/11/03 11:16:54;;;;;;;10.90;5.07;;;12.30;99.90;;;;;;5121358;28;20433;-68
2023/11/03 11:19:33;;;;;;;4.57;2.37;;;12.30;99.90;;;;;;5130760;27;20482;-67
2023/11/03 11:22:03;;;;;;;7.27;2.27;;;12.40;99.90;;;;;;5120400;27;20467;-69
2023/11/03 11:24:31;;;;;;;7.70;2.80;;;12.40;99.90;;;;;;5138144;27;20443;-69
2023/11/03 11:27:14;;;;;;;5.60;1.50;;;12.30;99.90;;;;;;5138222;27;20467;-69
2023/11/03 11:29:45;;;;;;;3.27;1.40;;;12.40;99.90;;;;;;5133398;27;20479;-67
2023/11/03 11:32:12;;;;;;;2.10;1.30;;;12.40;99.90;;;;;;5137626;27;20500;-65
2023/11/03 11:34:42;;;;;;;4.23;2.50;;;12.40;99.90;;;;;;5110553;27;20455;-66
2023/11/03 11:37:26;;;;;;;3.20;1.90;;;12.40;99.90;;;;;;5144586;27;20420;-71
2023/11/03 11:39:58;;;;;;;6.20;2.07;;;12.50;99.90;;;;;;5144178;27;20424;-67
2023/11/03 11:42:27;;;;;;;2.70;2.30;;;12.50;99.90;;;;;;5139822;27;21011;-65
2023/11/03 11:44:59;;;;;;;3.07;1.33;;;12.50;99.90;;;;;;5139303;27;20479;-65
2023/11/03 11:47:41;;;;;;;3.93;1.30;;;12.60;99.90;;;;;;5139456;27;20496;-66
2023/11/03 11:50:11;;;;;;;2.60;1.40;;;12.60;99.90;;;;;;5138965;27;20535;-67
2023/11/03 11:52:40;;;;;;;2.77;1.90;;;12.60;99.90;;;;;;5143002;27;20451;-66
2023/11/03 11:55:09;;;;;;;1.50;1.40;;;12.60;99.90;;;;;;5126940;27;20519;-67
2023/11/03 11:57:40;;;;;;;5.50;3.47;;;12.70;99.90;;;;;;5156338;27;20451;-69
2023/11/03 12:00:12;;;;;;;2.10;1.20;;;13.00;99.90;;;;;;5123656;27;20457;-67
2023/11/03 12:02:40;;;;;;;7.17;1.50;;;13.10;99.90;;;;;;5125176;27;20509;-67
2023/11/03 12:05:09;;;;;;;2.57;1.40;;;13.00;99.90;;;;;;5138064;27;20419;-68
2023/11/03 12:08:03;;;;;;;2.67;1.80;;;13.00;99.90;;;;;;5127301;27;20813;-67
2023/11/03 12:10:33;;;;;;;2.77;1.17;;;13.00;99.90;;;;;;5109550;28;20453;-65
2023/11/03 12:13:01;;;;;;;5.30;1.77;;;12.90;99.90;;;;;;5096949;28;20438;-65
2023/11/03 12:15:31;;;;;;;2.60;1.27;;;12.80;99.90;;;;;;5096120;28;20471;-68
2023/11/03 12:18:01;;;;;;;4.50;1.60;;;12.70;99.90;;;;;;5104231;28;20559;-68
2023/11/03 12:20:28;;;;;;;5.17;2.10;;;12.60;99.90;;;;;;5117039;28;20447;-68
2023/11/03 12:23:11;;;;;;;7.00;2.63;;;12.60;99.90;;;;;;5116418;28;20973;-68
2023/11/03 12:25:39;;;;;;;6.90;1.90;;;12.50;99.90;;;;;;5106657;28;20551;-68
2023/11/03 12:28:25;;;;;;;2.43;1.30;;;12.50;99.90;;;;;;5108073;28;20486;-67
2023/11/03 12:30:56;;;;;;;11.80;2.00;;;12.50;99.90;;;;;;5116737;28;20421;-66
2023/11/03 12:33:26;;;;;;;3.30;1.40;;;12.50;99.90;;;;;;5116142;28;20452;-67
2023/11/03 12:35:54;;;;;;;2.50;1.17;;;12.50;99.90;;;;;;5115837;28;20527;-68
2023/11/03 12:38:47;;;;;;;1.50;1.03;;;12.60;99.90;;;;;;5116539;28;20539;-67
2023/11/03 12:41:31;;;;;;;1.57;1.30;;;12.60;99.90;;;;;;5116805;28;20443;-66
2023/11/03 12:44:05;;;;;;;5.10;1.77;;;12.60;99.90;;;;;;5116939;28;20429;-67
2023/11/03 12:46:48;;;;;;;13.47;1.90;;;12.60;99.90;;;;;;5111828;28;20468;-68
2023/11/03 12:49:29;;;;;;;2.70;1.50;;;12.60;99.90;;;;;;5116173;28;20464;-68
2023/11/03 12:51:57;;;;;;;7.00;1.60;;;12.60;99.90;;;;;;5115861;28;20532;-67